Terminal Aerodrome Forecast
Issued by NWS Hastings, NE

Home | Current Version | Previous Version | Text Only | Print | Product List | Glossary On
Versions: 1 2 3 4 5 6 7 8 9 10 11 12 13 14 15 16 17 18 19
000
FTUS43 KGID 241126
TAFGRI
TAF
KGRI 241126Z 2412/2512 32012G17KT P6SM VCSH SCT060 OVC090
     FM241500 34020G30KT P6SM FEW250
     FM250000 30010KT P6SM SKC
     FM250300 VRB06KT P6SM SKC
     FM250800 22010KT P6SM SKC=

USA.gov is the U.S. government's official web portal to all federal, state and local government web resources and services.